Time;durP1;ratioP1;P1;durP2;ratioP2;P2;SDS_P1;SDS_P2;PMS_P1;PMS_P2;Temp;Humidity;BMP_temperature;BMP_pressure;BME280_temperature;BME280_humidity;BME280_pressure;Samples;Min_cycle;Max_cycle;Signal;HPM_P1;HPM_P2
2022/11/24 00:02:20;;;;;;;16.30;3.97;;;;;;;5.35;100.00;95529.47;4907812;28;20398;-88
2022/11/24 00:04:46;;;;;;;17.17;3.17;;;;;;;5.35;100.00;95543.31;4910388;28;21157;-88
2022/11/24 00:07:12;;;;;;;15.50;4.60;;;;;;;5.37;100.00;95538.00;4905593;28;20046;-87
2022/11/24 00:09:38;;;;;;;15.70;3.00;;;;;;;5.37;100.00;95543.19;4941126;28;20105;-88
2022/11/24 00:12:03;;;;;;;22.73;4.97;;;;;;;5.35;100.00;95539.91;4959926;28;20081;-88
2022/11/24 00:14:29;;;;;;;15.17;3.13;;;;;;;5.36;100.00;95544.97;4974129;28;20039;-88
2022/11/24 00:16:55;;;;;;;11.40;2.63;;;;;;;5.31;100.00;95541.97;4966915;28;20029;-88
2022/11/24 00:19:21;;;;;;;9.80;3.00;;;;;;;5.24;100.00;95540.91;4982009;28;20045;-88
2022/11/24 00:21:46;;;;;;;13.13;3.80;;;;;;;5.23;100.00;95534.06;4954931;28;20113;-88
2022/11/24 00:24:12;;;;;;;13.73;2.80;;;;;;;5.17;100.00;95538.06;4970863;28;20015;-88
2022/11/24 00:26:43;;;;;;;11.83;3.30;;;;;;;5.11;100.00;95541.22;4954602;28;20852;-88
2022/11/24 00:29:10;;;;;;;13.27;2.83;;;;;;;5.10;100.00;95539.59;4956753;28;20042;-88
2022/11/24 00:31:39;;;;;;;8.23;2.63;;;;;;;5.13;100.00;95541.06;4974119;28;20054;-88
2022/11/24 00:34:17;;;;;;;10.73;2.73;;;;;;;5.11;100.00;95541.22;4974935;28;20057;-88
2022/11/24 00:36:43;;;;;;;7.90;2.43;;;;;;;5.12;100.00;95545.47;4974283;28;20042;-88
2022/11/24 00:39:14;;;;;;;10.53;2.07;;;;;;;5.16;100.00;95549.47;4959446;28;20030;-87
2022/11/24 00:41:41;;;;;;;12.03;2.63;;;;;;;5.11;100.00;95546.44;4975354;28;20064;-87
2022/11/24 00:44:07;;;;;;;11.07;2.60;;;;;;;5.11;100.00;95551.66;4955894;28;20058;-88
2022/11/24 00:46:33;;;;;;;9.23;2.67;;;;;;;5.11;100.00;95545.63;4955683;28;20114;-88
2022/11/24 00:48:59;;;;;;;6.57;1.90;;;;;;;5.07;100.00;95555.50;4954637;28;20118;-88
2022/11/24 00:51:26;;;;;;;8.90;2.07;;;;;;;5.09;100.00;95550.97;4957831;28;20831;-87
2022/11/24 00:53:54;;;;;;;7.77;2.47;;;;;;;5.10;100.00;95557.03;4966706;28;20057;-88
2022/11/24 00:56:20;;;;;;;13.13;3.60;;;;;;;5.13;100.00;95556.72;4924046;28;20031;-88
2022/11/24 00:58:45;;;;;;;12.67;2.70;;;;;;;5.12;100.00;95570.72;4923920;28;21967;-87
2022/11/24 01:01:17;;;;;;;8.83;2.10;;;;;;;5.14;100.00;95568.81;4919813;28;20031;-87
2022/11/24 01:03:45;;;;;;;10.10;2.50;;;;;;;5.12;100.00;95563.72;4934930;28;20580;-87
2022/11/24 01:06:17;;;;;;;8.67;2.47;;;;;;;5.19;100.00;95571.78;4922971;28;20050;-88
2022/11/24 01:08:45;;;;;;;9.67;2.57;;;;;;;5.14;100.00;95582.66;4936716;28;20042;-88
2022/11/24 01:11:17;;;;;;;11.37;1.90;;;;;;;5.11;100.00;95582.13;4936692;28;20488;-87
2022/11/24 01:13:45;;;;;;;12.93;2.40;;;;;;;5.08;100.00;95583.22;4922450;28;20141;-87
2022/11/24 01:16:24;;;;;;;12.33;2.67;;;;;;;5.10;100.00;95580.47;4918797;28;20042;-88
2022/11/24 01:18:51;;;;;;;7.93;2.10;;;;;;;5.09;100.00;95584.84;4937823;28;20031;-88
2022/11/24 01:21:17;;;;;;;10.27;2.30;;;;;;;5.06;100.00;95586.91;4934992;28;20043;-88
2022/11/24 01:23:43;;;;;;;13.57;3.43;;;;;;;5.03;100.00;95595.00;4940323;28;20053;-87
2022/11/24 01:26:11;;;;;;;10.40;2.40;;;;;;;5.01;100.00;95589.13;4920517;28;20524;-87
2022/11/24 01:28:54;;;;;;;10.40;1.97;;;;;;;5.01;100.00;95600.38;4935074;28;20102;-87
2022/11/24 01:31:20;;;;;;;6.40;1.90;;;;;;;4.97;100.00;95599.84;4935199;28;20140;-88
2022/11/24 01:33:46;;;;;;;11.57;2.63;;;;;;;4.95;100.00;95612.16;4933307;28;20054;-88
2022/11/24 01:36:12;;;;;;;9.30;2.40;;;;;;;4.96;100.00;95613.00;4921237;28;20165;-88
2022/11/24 01:38:38;;;;;;;7.87;2.57;;;;;;;4.97;100.00;95623.28;4921445;28;20489;-88
2022/11/24 01:41:09;;;;;;;11.43;3.67;;;;;;;4.96;100.00;95626.88;4921755;28;20198;-87
2022/11/24 01:43:34;;;;;;;8.93;2.60;;;;;;;4.97;100.00;95628.50;4934424;28;20038;-87
2022/11/24 01:46:25;;;;;;;10.93;2.33;;;;;;;4.93;100.00;95636.75;4931654;28;20452;-88
2022/11/24 01:48:55;;;;;;;8.20;2.20;;;;;;;4.93;100.00;95640.16;4938160;28;20031;-88
2022/11/24 01:51:27;;;;;;;9.77;2.97;;;;;;;4.93;100.00;95637.56;4920130;28;20034;-87
2022/11/24 01:54:08;;;;;;;11.95;3.08;;;;;;;4.93;100.00;95632.34;4938676;28;20038;-88
2022/11/24 01:56:39;;;;;;;11.67;2.27;;;;;;;4.90;100.00;95637.03;4954231;28;20042;-87
2022/11/24 01:59:09;;;;;;;9.30;3.90;;;;;;;4.87;100.00;95640.72;4970306;28;20065;-88
2022/11/24 02:01:35;;;;;;;8.67;2.00;;;;;;;4.83;100.00;95644.56;4958125;28;20042;-88
2022/11/24 02:04:06;;;;;;;15.97;2.67;;;;;;;4.84;100.00;95645.38;4962175;28;20038;-88
2022/11/24 02:06:34;;;;;;;18.13;3.43;;;;;;;4.82;100.00;95642.91;4962168;28;20093;-88
2022/11/24 02:09:22;;;;;;;15.53;2.67;;;;;;;4.79;100.00;95656.19;4966949;28;20031;-87
2022/11/24 02:11:48;;;;;;;13.83;2.53;;;;;;;4.79;100.00;95645.78;4968693;28;20038;-88
2022/11/24 02:14:18;;;;;;;9.80;2.43;;;;;;;4.72;100.00;95648.13;4968491;28;20039;-88
2022/11/24 02:16:48;;;;;;;12.10;1.87;;;;;;;4.72;100.00;95655.94;4967628;28;20106;-88
2022/11/24 02:19:34;;;;;;;13.00;2.43;;;;;;;4.71;100.00;95656.91;4969214;28;20126;-87
2022/11/24 02:22:02;;;;;;;7.83;2.10;;;;;;;4.69;100.00;95648.41;4969760;28;20070;-88
2022/11/24 02:24:36;;;;;;;11.43;2.60;;;;;;;4.74;100.00;95661.03;4969834;28;20157;-87
2022/11/24 02:27:03;;;;;;;19.80;3.07;;;;;;;4.72;100.00;95655.13;4952745;28;20066;-88
2022/11/24 02:29:28;;;;;;;10.50;2.37;;;;;;;4.68;100.00;95661.56;4968533;28;20094;-88
2022/11/24 02:31:59;;;;;;;6.87;1.73;;;;;;;4.78;100.00;95659.78;4969090;28;20090;-88
2022/11/24 02:34:29;;;;;;;12.37;2.03;;;;;;;4.77;100.00;95663.34;4953790;28;20536;-88
2022/11/24 02:36:54;;;;;;;10.73;2.60;;;;;;;4.80;100.00;95655.25;4968960;28;20039;-88
2022/11/24 02:39:20;;;;;;;10.73;2.07;;;;;;;4.86;100.00;95669.50;4955135;28;20065;-88
2022/11/24 02:41:53;;;;;;;14.07;3.20;;;;;;;4.82;100.00;95668.94;4967515;28;20069;-88
2022/11/24 02:44:22;;;;;;;13.30;2.55;;;;;;;4.82;100.00;95670.75;4950009;28;20038;-88
2022/11/24 02:46:48;;;;;;;10.40;3.33;;;;;;;4.85;100.00;95673.88;4937331;28;20018;-88
2022/11/24 02:49:15;;;;;;;12.27;2.40;;;;;;;4.86;100.00;95678.16;4954555;28;20035;-88
2022/11/24 02:51:40;;;;;;;10.40;2.43;;;;;;;4.89;100.00;95682.25;4934701;28;20027;-88
2022/11/24 02:54:06;;;;;;;10.60;2.13;;;;;;;4.89;100.00;95679.66;4965765;28;20031;-88
2022/11/24 02:56:32;;;;;;;9.83;2.30;;;;;;;4.99;100.00;95679.66;4904641;28;21726;-87
2022/11/24 02:58:58;;;;;;;10.73;1.83;;;;;;;5.04;100.00;95674.84;4904803;28;20046;-88
2022/11/24 03:01:24;;;;;;;9.60;2.33;;;;;;;5.02;100.00;95681.97;4906596;28;20042;-87
2022/11/24 03:03:49;;;;;;;7.47;1.87;;;;;;;5.13;100.00;95684.41;4901330;28;20448;-86
2022/11/24 03:06:15;;;;;;;12.83;2.97;;;;;;;5.08;100.00;95686.63;4896204;28;20043;-87
2022/11/24 03:08:41;;;;;;;9.07;1.70;;;;;;;5.07;100.00;95680.63;4894582;28;20069;-87
2022/11/24 03:11:07;;;;;;;7.90;1.70;;;;;;;5.09;100.00;95686.50;4896023;28;20034;-87
2022/11/24 03:13:32;;;;;;;8.77;2.10;;;;;;;5.11;100.00;95684.56;4889289;28;20046;-88
2022/11/24 03:15:58;;;;;;;10.10;1.77;;;;;;;5.09;100.00;95683.88;4908709;28;20026;-87
2022/11/24 03:18:24;;;;;;;9.47;1.70;;;;;;;5.11;100.00;95681.97;4910809;28;20051;-87
2022/11/24 03:20:51;;;;;;;12.83;1.60;;;;;;;5.10;100.00;95689.94;4901413;28;20058;-87
2022/11/24 03:23:16;;;;;;;9.67;1.70;;;;;;;5.06;100.00;95683.34;4893523;28;20031;-87
2022/11/24 03:25:42;;;;;;;8.43;1.63;;;;;;;5.02;100.00;95689.78;4954864;28;20045;-88
2022/11/24 03:28:08;;;;;;;9.53;2.10;;;;;;;5.00;100.00;95694.31;4957103;28;20034;-87
2022/11/24 03:30:33;;;;;;;9.70;3.17;;;;;;;5.03;100.00;95694.03;4958381;28;20129;-88
2022/11/24 03:33:03;;;;;;;10.13;1.80;;;;;;;5.03;100.00;95701.84;4973878;28;20035;-88
2022/11/24 03:35:29;;;;;;;10.37;1.70;;;;;;;5.08;100.00;95702.28;4973103;28;20098;-87
2022/11/24 03:37:55;;;;;;;8.30;1.67;;;;;;;5.05;100.00;95692.13;4959604;28;20552;-87
2022/11/24 03:40:21;;;;;;;7.33;1.43;;;;;;;5.01;100.00;95701.19;4943449;28;20032;-87
2022/11/24 03:42:46;;;;;;;9.13;1.67;;;;;;;4.98;100.00;95697.06;4945189;28;20038;-87
2022/11/24 03:45:13;;;;;;;9.90;1.70;;;;;;;4.96;100.00;95692.00;4951341;28;20031;-87
2022/11/24 03:47:39;;;;;;;8.33;1.50;;;;;;;4.91;100.00;95701.19;4947876;28;20041;-87
2022/11/24 03:50:05;;;;;;;9.50;1.40;;;;;;;4.86;100.00;95704.22;4943569;28;20042;-87
2022/11/24 03:52:31;;;;;;;7.93;1.43;;;;;;;4.84;100.00;95700.91;4953585;28;20035;-86
2022/11/24 03:54:57;;;;;;;8.07;1.53;;;;;;;4.73;100.00;95709.69;4911305;28;21333;-86
2022/11/24 03:57:22;;;;;;;7.77;1.47;;;;;;;4.73;100.00;95708.88;4923946;28;20046;-86
2022/11/24 03:59:48;;;;;;;8.17;1.97;;;;;;;4.73;100.00;95717.50;4925408;28;20035;-86
2022/11/24 04:02:14;;;;;;;9.30;1.50;;;;;;;4.66;100.00;95718.16;4940310;28;20049;-86
2022/11/24 04:04:42;;;;;;;5.80;1.30;;;;;;;4.65;100.00;95719.13;4925562;28;20038;-86
2022/11/24 04:07:07;;;;;;;8.77;1.67;;;;;;;4.71;100.00;95723.81;4924160;28;20038;-87
2022/11/24 04:09:33;;;;;;;6.70;1.30;;;;;;;4.76;100.00;95729.41;4973084;28;20023;-87
2022/11/24 04:14:43;;;;;;;4.63;1.17;;;;;;;4.88;100.00;95730.94;4972318;28;20042;-86
2022/11/24 04:17:09;;;;;;;8.57;1.73;;;;;;;4.95;100.00;95731.22;4975066;28;20046;-87
2022/11/24 04:19:34;;;;;;;4.50;1.30;;;;;;;5.03;100.00;95730.53;4958635;28;20059;-87
2022/11/24 04:22:00;;;;;;;8.10;1.40;;;;;;;5.07;100.00;95726.69;4974927;28;20492;-87
2022/11/24 04:24:26;;;;;;;10.67;1.73;;;;;;;5.10;100.00;95740.28;4959231;28;20058;-87
2022/11/24 04:26:51;;;;;;;8.07;1.27;;;;;;;5.11;100.00;95741.09;4970303;28;20022;-86
2022/11/24 04:29:17;;;;;;;8.50;1.40;;;;;;;5.10;100.00;95744.69;4971651;28;20065;-86
2022/11/24 04:31:43;;;;;;;6.20;1.13;;;;;;;5.08;100.00;95744.78;4957922;28;20397;-86
2022/11/24 04:34:10;;;;;;;6.00;1.40;;;;;;;5.15;100.00;95745.06;4956457;28;20133;-87
2022/11/24 04:36:35;;;;;;;10.53;1.70;;;;;;;5.12;100.00;95755.75;4955130;28;20089;-86
2022/11/24 04:39:01;;;;;;;10.03;1.80;;;;;;;5.18;100.00;95752.63;4955476;28;20923;-86
2022/11/24 04:41:27;;;;;;;14.23;2.47;;;;;;;5.16;100.00;95757.13;4969539;28;20035;-87
2022/11/24 04:43:53;;;;;;;13.27;2.83;;;;;;;5.16;100.00;95759.75;4965803;28;20039;-86
2022/11/24 04:46:19;;;;;;;6.93;3.27;;;;;;;5.11;100.00;95764.56;4963845;28;20026;-87
2022/11/24 04:48:45;;;;;;;9.47;1.70;;;;;;;5.13;100.00;95762.63;4976091;28;20133;-86
2022/11/24 04:51:13;;;;;;;9.97;1.40;;;;;;;5.09;100.00;95761.25;4938392;28;20066;-86
2022/11/24 04:53:39;;;;;;;10.80;1.73;;;;;;;5.08;100.00;95764.81;4965826;28;20081;-87
2022/11/24 04:56:05;;;;;;;7.80;1.60;;;;;;;5.11;100.00;95761.94;4925110;28;20520;-86
2022/11/24 04:58:31;;;;;;;6.90;1.80;;;;;;;5.08;100.00;95757.81;4938181;28;20068;-87
2022/11/24 05:00:57;;;;;;;6.37;1.30;;;;;;;5.13;100.00;95776.50;4925176;28;20039;-86
2022/11/24 05:03:22;;;;;;;4.67;1.20;;;;;;;5.16;100.00;95777.97;4936841;28;20042;-86
2022/11/24 05:05:48;;;;;;;6.53;1.67;;;;;;;5.19;100.00;95785.53;4937838;28;20027;-86
2022/11/24 05:08:14;;;;;;;9.50;1.33;;;;;;;5.15;100.00;95784.16;4916068;28;20043;-86
2022/11/24 05:10:40;;;;;;;6.53;2.00;;;;;;;5.13;100.00;95773.03;4918167;28;20035;-86
2022/11/24 05:13:10;;;;;;;9.73;3.40;;;;;;;5.12;100.00;95771.41;4918235;28;20049;-86
2022/11/24 05:15:40;;;;;;;7.53;1.67;;;;;;;5.13;100.00;95773.03;4933709;28;20054;-86
2022/11/24 05:18:08;;;;;;;11.03;1.83;;;;;;;5.19;100.00;95773.31;4934316;28;22437;-87
2022/11/24 05:20:38;;;;;;;11.20;2.17;;;;;;;5.26;100.00;95781.41;4916460;28;20031;-86
2022/11/24 05:23:05;;;;;;;9.53;2.03;;;;;;;5.26;100.00;95794.44;5006031;23;20057;-87
2022/11/24 05:25:31;;;;;;;9.13;1.60;;;;;;;5.23;100.00;95786.94;4924858;28;20115;-87
2022/11/24 05:28:02;;;;;;;11.03;1.57;;;;;;;5.24;100.00;95780.75;4956650;28;20030;-87
2022/11/24 05:30:29;;;;;;;7.13;1.50;;;;;;;5.24;100.00;95791.16;4956441;28;20034;-87
2022/11/24 05:32:55;;;;;;;7.90;2.00;;;;;;;5.24;100.00;95777.31;4953340;28;20503;-87
2022/11/24 05:35:29;;;;;;;6.27;1.53;;;;;;;5.28;100.00;95782.09;4943948;28;20035;-90
2022/11/24 05:37:57;;;;;;;11.33;2.03;;;;;;;5.36;100.00;95777.03;4940552;28;20129;-66
2022/11/24 05:40:23;;;;;;;8.30;1.93;;;;;;;5.37;100.00;95780.47;4943173;28;20070;-88
2022/11/24 05:42:48;;;;;;;7.40;1.93;;;;;;;5.35;100.00;95780.59;4921378;28;20030;-88
2022/11/24 05:45:17;;;;;;;8.53;1.60;;;;;;;5.34;100.00;95783.34;4901071;28;20063;-88
2022/11/24 05:47:46;;;;;;;7.40;1.97;;;;;;;5.37;100.00;95796.13;4895108;28;20049;-89
2022/11/24 05:50:13;;;;;;;9.10;2.23;;;;;;;5.32;100.00;95793.91;4891044;28;20063;-89
2022/11/24 05:52:39;;;;;;;7.93;1.80;;;;;;;5.32;100.00;95801.72;4904039;28;20050;-88
2022/11/24 05:55:07;;;;;;;8.00;1.33;;;;;;;5.33;100.00;95798.19;4895372;28;20389;-88
2022/11/24 05:57:33;;;;;;;10.47;2.53;;;;;;;5.37;100.00;95799.53;4921431;28;20129;-88
2022/11/24 06:00:00;;;;;;;6.07;1.77;;;;;;;5.33;100.00;95795.56;4941458;28;20053;-89
2022/11/24 06:02:26;;;;;;;6.80;1.70;;;;;;;5.25;100.00;95799.81;4936806;28;20038;-89
2022/11/24 06:04:52;;;;;;;8.90;1.57;;;;;;;5.16;100.00;95799.69;4922494;28;20818;-88
2022/11/24 06:07:18;;;;;;;13.17;2.20;;;;;;;5.13;100.00;95804.31;4917479;28;20772;-89
2022/11/24 06:09:44;;;;;;;7.67;2.30;;;;;;;5.11;100.00;95804.47;4937835;28;20089;-89
2022/11/24 06:12:11;;;;;;;8.67;1.97;;;;;;;5.06;100.00;95814.47;4923761;28;21623;-88
2022/11/24 06:14:37;;;;;;;11.63;2.40;;;;;;;5.02;100.00;95810.50;4935969;28;20669;-88
2022/11/24 06:17:07;;;;;;;6.40;2.10;;;;;;;5.02;100.00;95812.28;4959129;28;20684;-85
2022/11/24 06:19:32;;;;;;;8.70;1.97;;;;;;;4.98;100.00;95811.72;4975962;28;20495;-89
2022/11/24 06:21:58;;;;;;;13.57;5.00;;;;;;;5.06;100.00;95818.84;4959804;28;20034;-89
2022/11/24 06:24:24;;;;;;;20.77;5.03;;;;;;;5.02;100.00;95825.31;4960241;28;20459;-88
2022/11/24 06:26:49;;;;;;;8.73;3.57;;;;;;;5.02;100.00;95825.31;4957483;28;20026;-89
2022/11/24 06:29:15;;;;;;;8.13;2.40;;;;;;;5.00;100.00;95820.25;4978134;28;20611;-89
2022/11/24 06:31:41;;;;;;;11.57;2.90;;;;;;;5.07;100.00;95825.75;4978609;28;20037;-88
2022/11/24 06:34:10;;;;;;;8.80;2.10;;;;;;;5.02;100.00;95822.69;4977553;28;20185;-89
2022/11/24 06:36:37;;;;;;;13.37;2.80;;;;;;;5.07;100.00;95826.56;4988534;28;20039;-88
2022/11/24 06:39:09;;;;;;;9.07;3.03;;;;;;;5.09;100.00;95823.81;4959673;28;20038;-88
2022/11/24 06:41:35;;;;;;;14.53;2.57;;;;;;;5.11;100.00;95821.91;4973069;28;20034;-89
2022/11/24 06:44:02;;;;;;;12.97;3.30;;;;;;;5.07;100.00;95823.94;4959602;28;20045;-89
2022/11/24 06:46:28;;;;;;;17.37;4.20;;;;;;;5.09;100.00;95815.97;4956914;28;20038;-89
2022/11/24 06:48:53;;;;;;;19.00;4.53;;;;;;;5.09;100.00;95808.16;4960002;28;20584;-89
2022/11/24 06:51:27;;;;;;;17.10;4.60;;;;;;;5.13;100.00;95815.59;4960845;28;20477;-88
2022/11/24 06:53:53;;;;;;;10.97;2.87;;;;;;;5.08;100.00;95814.34;4974018;28;20542;-89
2022/11/24 06:56:21;;;;;;;11.70;4.17;;;;;;;5.00;100.00;95808.97;4923378;28;20057;-89
2022/11/24 06:58:48;;;;;;;12.73;2.83;;;;;;;5.00;100.00;95806.38;4895366;28;20802;-89
2022/11/24 07:01:23;;;;;;;8.17;1.80;;;;;;;5.04;100.00;95813.78;4918151;28;20039;-89
2022/11/24 07:03:54;;;;;;;7.20;1.80;;;;;;;5.04;100.00;95812.97;4897853;28;20027;-89
2022/11/24 07:06:22;;;;;;;9.50;2.10;;;;;;;5.04;100.00;95821.63;4900953;28;20053;-89
2022/11/24 07:08:49;;;;;;;8.60;2.20;;;;;;;5.04;100.00;95821.63;4897979;28;20714;-89
2022/11/24 07:11:18;;;;;;;13.17;2.63;;;;;;;5.04;100.00;95821.63;4918115;28;20134;-88
2022/11/24 07:13:45;;;;;;;7.57;2.00;;;;;;;5.02;100.00;95823.53;4904602;28;20031;-89
2022/11/24 07:16:21;;;;;;;6.13;1.73;;;;;;;5.07;100.00;95821.34;4904745;28;20034;-89
2022/11/24 07:18:50;;;;;;;6.17;1.57;;;;;;;5.03;100.00;95821.72;4922871;28;20165;-89
2022/11/24 07:21:16;;;;;;;14.60;2.63;;;;;;;5.02;100.00;95827.91;4909815;28;20645;-88
2022/11/24 07:23:42;;;;;;;4.33;1.20;;;;;;;5.00;100.00;95830.66;4916265;28;20518;-89
2022/11/24 07:26:09;;;;;;;6.03;1.40;;;;;;;4.93;100.00;95838.19;4976592;28;20034;-89
2022/11/24 07:28:36;;;;;;;6.67;1.73;;;;;;;4.91;100.00;95828.84;4972989;28;20075;-89
2022/11/24 07:31:12;;;;;;;6.30;1.67;;;;;;;4.90;100.00;95833.25;4964594;28;20079;-89
2022/11/24 07:33:38;;;;;;;10.17;1.80;;;;;;;4.92;100.00;95838.31;4969557;28;20038;-89
2022/11/24 07:36:06;;;;;;;7.77;1.77;;;;;;;4.92;100.00;95836.53;4960084;28;20035;-89
2022/11/24 07:38:32;;;;;;;11.03;2.07;;;;;;;4.89;100.00;95842.00;4953714;28;20041;-89
2022/11/24 07:41:05;;;;;;;11.63;1.53;;;;;;;4.89;100.00;95836.78;4965125;28;20034;-89
2022/11/24 07:43:32;;;;;;;11.63;2.13;;;;;;;4.92;100.00;95851.34;4957642;28;20700;-89
2022/11/24 07:45:58;;;;;;;7.27;1.50;;;;;;;4.99;100.00;95846.41;4957594;28;20019;-89
2022/11/24 07:48:23;;;;;;;8.30;1.80;;;;;;;5.04;100.00;95846.84;4952169;28;20038;-89
2022/11/24 07:50:51;;;;;;;7.47;1.30;;;;;;;5.05;100.00;95849.31;4971140;28;20038;-89
2022/11/24 07:53:17;;;;;;;7.40;1.80;;;;;;;5.13;100.00;95846.03;4957287;28;20092;-89
2022/11/24 07:55:43;;;;;;;10.60;2.10;;;;;;;5.05;100.00;95858.91;4955155;28;20118;-89
2022/11/24 07:58:10;;;;;;;8.30;2.10;;;;;;;5.09;100.00;95855.06;4963185;28;20484;-90
2022/11/24 08:00:35;;;;;;;10.03;3.00;;;;;;;5.08;100.00;95856.88;4972243;28;20368;-89
2022/11/24 08:03:01;;;;;;;7.27;2.47;;;;;;;5.06;100.00;95860.56;4964465;28;20029;-90
2022/11/24 08:05:27;;;;;;;9.80;2.90;;;;;;;5.13;100.00;95872.09;4956486;28;20061;-89
2022/11/24 08:07:58;;;;;;;10.10;2.00;;;;;;;5.15;100.00;95880.59;4953201;28;20034;-90
2022/11/24 08:10:29;;;;;;;11.33;2.47;;;;;;;5.14;100.00;95889.41;4969349;28;20026;-90
2022/11/24 08:13:00;;;;;;;7.67;1.83;;;;;;;5.15;100.00;95899.69;4953495;28;20046;-90
2022/11/24 08:15:26;;;;;;;9.57;1.93;;;;;;;5.20;100.00;95897.50;4956446;28;20116;-90
2022/11/24 08:18:05;;;;;;;6.90;1.67;;;;;;;5.23;100.00;95914.66;4975046;28;20575;-90
2022/11/24 08:20:32;;;;;;;15.73;2.67;;;;;;;5.25;100.00;95914.53;4945768;28;20039;-90
2022/11/24 08:22:58;;;;;;;11.53;2.00;;;;;;;5.22;100.00;95914.78;4976613;28;20080;-90
2022/11/24 08:25:31;;;;;;;10.90;1.73;;;;;;;5.18;100.00;95920.25;4958547;28;20052;-90
2022/11/24 08:28:02;;;;;;;13.27;2.42;;;;;;;5.20;100.00;95933.19;4956092;28;20038;-89
2022/11/24 08:30:29;;;;;;;10.00;1.53;;;;;;;5.13;100.00;95919.84;4951278;28;20162;-89
2022/11/24 08:32:57;;;;;;;21.07;2.33;;;;;;;5.08;100.00;95931.63;4960619;28;20358;-90
2022/11/24 08:35:22;;;;;;;17.90;2.67;;;;;;;5.02;100.00;95932.16;4958460;28;20084;-90
2022/11/24 08:37:52;;;;;;;9.30;1.50;;;;;;;5.03;100.00;95939.00;4950218;28;20067;-90
2022/11/24 08:40:18;;;;;;;12.33;2.37;;;;;;;5.05;100.00;95944.91;4956590;28;20069;-90
2022/11/24 08:42:44;;;;;;;10.87;1.97;;;;;;;4.97;100.00;95958.63;4968321;28;20492;-89
2022/11/24 08:45:10;;;;;;;15.27;3.10;;;;;;;4.96;100.00;95943.91;4958868;28;20080;-89
2022/11/24 08:47:36;;;;;;;12.27;1.43;;;;;;;4.96;100.00;95947.38;4955189;28;20925;-90
2022/11/24 08:50:02;;;;;;;7.50;1.97;;;;;;;4.93;100.00;95944.22;4956104;28;20035;-89
2022/11/24 08:52:27;;;;;;;7.77;2.10;;;;;;;4.88;100.00;95936.78;4958848;28;20640;-90
2022/11/24 08:54:53;;;;;;;11.17;1.80;;;;;;;4.91;100.00;95944.31;4967700;28;20034;-90
2022/11/24 08:57:19;;;;;;;7.87;2.93;;;;;;;4.89;100.00;95937.59;4960148;28;20070;-90
2022/11/24 08:59:45;;;;;;;7.47;2.53;;;;;;;4.88;100.00;95944.59;4956661;28;20054;-90
2022/11/24 09:02:12;;;;;;;9.53;2.13;;;;;;;4.92;100.00;95952.97;4971870;28;20030;-90
2022/11/24 09:04:38;;;;;;;9.43;2.07;;;;;;;4.92;100.00;95955.56;4956393;28;20030;-90
2022/11/24 09:07:04;;;;;;;9.70;2.17;;;;;;;4.95;100.00;95957.91;4982594;28;20523;-90
2022/11/24 09:09:30;;;;;;;7.37;2.20;;;;;;;5.01;100.00;95961.78;4952104;28;20033;-90
2022/11/24 09:11:55;;;;;;;13.73;2.13;;;;;;;5.11;100.00;95967.84;4986385;28;20045;-90
2022/11/24 09:14:21;;;;;;;13.17;2.20;;;;;;;5.14;100.00;95968.41;4986586;28;20512;-90
2022/11/24 09:16:47;;;;;;;7.83;2.10;;;;;;;5.19;100.00;95961.00;4960479;28;20105;-89
2022/11/24 09:19:13;;;;;;;9.10;3.00;;;;;;;5.18;100.00;95968.97;4973252;28;20031;-89
2022/11/24 09:21:39;;;;;;;16.33;4.77;;;;;;;5.15;100.00;95970.06;4950614;28;20472;-91
2022/11/24 09:24:06;;;;;;;11.27;3.00;;;;;;;5.24;100.00;95978.88;4960683;28;20073;-91
2022/11/24 09:26:34;;;;;;;10.03;3.00;;;;;;;5.20;100.00;95982.72;4967316;28;20026;-91
2022/11/24 09:29:01;;;;;;;13.10;2.40;;;;;;;5.14;100.00;95984.06;4968975;28;20049;-91
2022/11/24 09:31:30;;;;;;;11.77;2.13;;;;;;;5.19;100.00;95984.47;4966764;28;20019;-91
2022/11/24 09:33:56;;;;;;;10.93;2.23;;;;;;;5.18;100.00;95979.41;4977238;28;20064;-91
2022/11/24 09:36:23;;;;;;;14.30;2.30;;;;;;;5.24;100.00;95978.88;4979529;28;20018;-91
2022/11/24 09:38:49;;;;;;;8.57;2.17;;;;;;;5.23;100.00;95977.25;4977797;28;20027;-90
2022/11/24 09:41:42;;;;;;;11.10;2.13;;;;;;;5.30;100.00;95977.50;4976238;28;20022;-91
2022/11/24 09:44:46;;;;;;;8.88;1.92;;;;;;;5.53;100.00;95978.94;4974471;28;20030;-91
2022/11/24 09:47:27;;;;;;;8.03;1.57;;;;;;;5.63;100.00;95981.56;4952890;28;20081;-91
2022/11/24 09:50:05;;;;;;;14.60;2.63;;;;;;;5.64;100.00;95975.41;4960210;28;20042;-91
2022/11/24 09:53:14;;;;;;;13.33;2.13;;;;;;;5.71;100.00;95971.28;4956613;28;20022;-91
2022/11/24 09:55:52;;;;;;;10.97;2.77;;;;;;;6.16;100.00;95976.00;4941545;28;20492;-91
2022/11/24 09:58:41;;;;;;;11.87;2.73;;;;;;;7.31;100.00;95971.44;4971240;28;20026;-90
2022/11/24 10:01:25;;;;;;;9.60;2.17;;;;;;;7.43;100.00;95966.00;4960883;28;20026;-91
2022/11/24 10:03:51;;;;;;;11.93;2.90;;;;;;;7.79;100.00;95966.88;4981524;28;20034;-91
2022/11/24 10:06:23;;;;;;;12.73;2.87;;;;;;;7.32;100.00;95965.22;4962127;28;20026;-89
2022/11/24 10:09:14;;;;;;;4.07;1.20;;;;;;;6.77;100.00;95962.56;4972687;28;20034;-91
2022/11/24 10:11:39;;;;;;;12.17;2.00;;;;;;;6.77;100.00;95962.56;4961103;28;20034;-91
2022/11/24 10:14:28;;;;;;;8.17;2.10;;;;;;;7.26;100.00;95978.88;4975973;28;20516;-91
2022/11/24 10:17:16;;;;;;;6.70;1.63;;;;;;;7.48;100.00;95982.09;4960606;28;20054;-90
2022/11/24 10:20:11;;;;;;;10.20;2.10;;;;;;;7.49;100.00;95975.88;4957191;28;20137;-91
2022/11/24 10:22:42;;;;;;;6.87;2.10;;;;;;;7.77;100.00;95974.84;4917417;28;20096;-91
2022/11/24 10:25:35;;;;;;;9.57;1.87;;;;;;;7.73;100.00;95977.94;4958260;28;20042;-91
2022/11/24 10:28:04;;;;;;;9.23;1.60;;;;;;;7.16;100.00;95985.94;4914594;28;20042;-92
2022/11/24 10:30:30;;;;;;;13.27;3.10;;;;;;;6.89;100.00;95993.75;4970994;28;20454;-91
2022/11/24 10:33:12;;;;;;;15.67;3.47;;;;;;;6.89;100.00;95986.72;4973323;28;20061;-91
2022/11/24 10:35:49;;;;;;;10.73;3.47;;;;;;;6.85;100.00;95998.44;4954877;28;20039;-92
2022/11/24 10:38:21;;;;;;;7.23;2.40;;;;;;;7.44;100.00;95999.03;5005995;28;20030;-91
2022/11/24 10:41:22;;;;;;;7.87;1.93;;;;;;;7.77;100.00;95987.94;4968965;28;20132;-91
2022/11/24 10:43:50;;;;;;;9.37;1.90;;;;;;;7.33;100.00;95993.03;4956868;28;20054;-90
2022/11/24 10:46:27;;;;;;;8.03;1.80;;;;;;;7.02;100.00;95994.25;4963073;28;20034;-90
2022/11/24 10:49:04;;;;;;;6.97;2.03;;;;;;;7.06;100.00;95998.22;4952344;28;20489;-90
2022/11/24 10:51:30;;;;;;;13.50;2.70;;;;;;;6.98;100.00;95992.91;4957861;28;20042;-89
2022/11/24 10:54:04;;;;;;;9.17;2.00;;;;;;;6.85;100.00;95994.03;4976117;28;20125;-90
2022/11/24 10:56:53;;;;;;;8.27;1.70;;;;;;;6.91;100.00;95994.41;4961227;28;20031;-89
2022/11/24 10:59:36;;;;;;;9.67;1.90;;;;;;;6.90;100.00;95996.22;4958518;28;20712;-90
2022/11/24 11:02:38;;;;;;;6.90;1.85;;;;;;;6.66;100.00;95994.06;4962638;28;20038;-90
2022/11/24 11:05:27;;;;;;;7.83;1.80;;;;;;;6.67;100.00;96011.41;4970351;28;20096;-90
2022/11/24 11:08:27;;;;;;;9.53;2.10;;;;;;;6.66;100.00;96011.56;4961657;28;20049;-89
2022/11/24 11:11:20;;;;;;;7.17;2.10;;;;;;;6.68;100.00;96007.84;4915961;29;20211;-89
2022/11/24 11:13:52;;;;;;;6.57;1.63;;;;;;;6.78;100.00;96008.63;4908209;28;20071;-89
2022/11/24 11:16:31;;;;;;;4.37;1.30;;;;;;;6.70;100.00;96010.31;4957263;28;20030;-89
2022/11/24 11:18:57;;;;;;;7.27;1.57;;;;;;;7.00;100.00;96001.41;4974934;28;20081;-89
2022/11/24 11:21:43;;;;;;;8.03;1.50;;;;;;;7.00;100.00;96004.84;4957713;28;20030;-89
2022/11/24 11:24:15;;;;;;;5.27;1.30;;;;;;;7.05;100.00;95999.22;4972362;28;20072;-89
2022/11/24 11:27:00;;;;;;;6.82;2.58;;;;;;;7.27;100.00;95998.00;4973919;28;20022;-89
2022/11/24 11:29:28;;;;;;;5.17;1.30;;;;;;;7.40;100.00;95997.69;4962676;28;20038;-89
2022/11/24 11:32:03;;;;;;;3.27;0.90;;;;;;;7.18;100.00;95997.09;4986179;28;20038;-90
2022/11/24 11:34:35;;;;;;;4.47;1.30;;;;;;;7.09;100.00;96000.56;4954445;28;20034;-88
2022/11/24 11:37:03;;;;;;;3.87;1.03;;;;;;;7.29;100.00;96002.13;4970023;28;20038;-90
2022/11/24 11:39:33;;;;;;;3.03;1.20;;;;;;;7.02;100.00;95995.09;4954190;28;20035;-89
2022/11/24 11:41:59;;;;;;;4.30;1.33;;;;;;;6.89;100.00;96001.59;4961564;28;20077;-89
2022/11/24 11:44:46;;;;;;;3.67;1.00;;;;;;;6.67;100.00;96011.41;4981721;28;20164;-89